createdAt,value
2022-08-04T00:00:28.804Z,91.50
2022-08-04T00:03:17.204Z,91.70
2022-08-04T00:05:59.017Z,91.80
2022-08-04T00:08:41.717Z,91.80
2022-08-04T00:11:15.369Z,91.60
2022-08-04T00:13:58.189Z,92.10
2022-08-04T00:16:34.902Z,92.20
2022-08-04T00:19:11.534Z,92.10
2022-08-04T00:21:47.576Z,92.10
2022-08-04T00:24:17.837Z,92.40
2022-08-04T00:26:46.821Z,92.40
2022-08-04T00:29:15.208Z,91.90
2022-08-04T00:31:54.653Z,91.80
2022-08-04T00:34:27.010Z,92.30
2022-08-04T00:36:57.953Z,92.20
2022-08-04T00:39:26.974Z,92.20
2022-08-04T00:42:26.512Z,92.00
2022-08-04T00:45:13.828Z,92.30
2022-08-04T00:47:55.406Z,92.50
2022-08-04T00:50:32.679Z,92.50
2022-08-04T00:53:11.326Z,92.70
2022-08-04T00:56:05.899Z,92.00
2022-08-04T00:58:47.814Z,92.20
2022-08-04T01:01:34.604Z,92.40
2022-08-04T01:04:07.614Z,92.40
2022-08-04T01:06:40.511Z,92.00
2022-08-04T01:09:27.398Z,92.10
2022-08-04T01:12:09.573Z,92.10
2022-08-04T01:14:52.006Z,91.90
2022-08-04T01:17:25.641Z,91.90
2022-08-04T01:20:03.266Z,91.60
2022-08-04T01:22:55.229Z,91.60
2022-08-04T01:25:56.238Z,91.50
2022-08-04T01:28:49.619Z,91.50
2022-08-04T01:31:30.950Z,91.40
2022-08-04T01:34:04.139Z,91.80
2022-08-04T01:36:35.790Z,92.30
2022-08-04T01:39:27.457Z,92.50
2022-08-04T01:41:58.724Z,92.50
2022-08-04T01:44:29.800Z,92.30
2022-08-04T01:47:01.567Z,92.30
2022-08-04T01:49:39.832Z,92.60
2022-08-04T01:52:12.123Z,92.60
2022-08-04T01:54:43.367Z,92.10
2022-08-04T01:57:38.481Z,92.60
2022-08-04T02:00:01.842Z,93.00
2022-08-04T02:02:31.453Z,92.80
2022-08-04T02:04:59.622Z,92.50
2022-08-04T02:07:40.188Z,92.20
2022-08-04T02:10:18.361Z,92.10
2022-08-04T02:12:57.625Z,92.00
2022-08-04T02:15:31.377Z,91.80
2022-08-04T02:18:05.741Z,91.80
2022-08-04T02:20:39.918Z,91.80
2022-08-04T02:23:09.974Z,91.70
2022-08-04T02:25:41.795Z,91.60
2022-08-04T02:28:23.194Z,91.70
2022-08-04T02:31:04.691Z,91.80
2022-08-04T02:33:39.011Z,92.00
2022-08-04T02:36:10.493Z,92.10
2022-08-04T02:38:56.929Z,91.80
2022-08-04T02:41:28.038Z,91.90
2022-08-04T02:43:59.434Z,92.50
2022-08-04T02:46:28.271Z,92.80
2022-08-04T02:48:58.471Z,93.30
2022-08-04T02:51:30.826Z,93.20
2022-08-04T02:54:00.521Z,93.00
2022-08-04T02:56:31.265Z,93.20
2022-08-04T02:59:02.292Z,93.30
2022-08-04T03:01:31.022Z,93.00
2022-08-04T03:04:26.509Z,92.80
2022-08-04T03:07:30.403Z,92.70
2022-08-04T03:10:31.415Z,92.70
2022-08-04T03:13:38.882Z,92.50
2022-08-04T03:16:54.594Z,92.50
2022-08-04T03:19:56.391Z,92.50
2022-08-04T03:23:12.644Z,92.80
2022-08-04T03:26:43.987Z,93.30
2022-08-04T03:29:36.442Z,93.00
2022-08-04T03:32:42.455Z,92.60
2022-08-04T03:35:43.717Z,92.70
2022-08-04T03:38:42.841Z,92.70
2022-08-04T03:42:03.185Z,93.30
2022-08-04T03:45:23.053Z,93.90
2022-08-04T03:48:11.204Z,93.70
2022-08-04T03:51:35.221Z,93.40
2022-08-04T03:54:36.777Z,93.10
2022-08-04T03:57:34.815Z,92.80
2022-08-04T04:00:09.879Z,92.70
2022-08-04T04:03:03.606Z,92.40
2022-08-04T04:06:04.909Z,92.70
2022-08-04T04:08:52.371Z,93.20
2022-08-04T04:11:57.139Z,93.40
2022-08-04T04:14:47.368Z,93.70
2022-08-04T04:17:46.737Z,93.70
2022-08-04T04:20:42.582Z,93.40
2022-08-04T04:23:43.189Z,93.30
2022-08-04T04:26:39.462Z,93.00
2022-08-04T04:29:50.108Z,93.00
2022-08-04T04:32:25.125Z,92.90
2022-08-04T04:35:11.193Z,92.40
2022-08-04T04:38:05.910Z,92.50
2022-08-04T04:40:42.419Z,92.70
2022-08-04T04:43:50.905Z,92.70
2022-08-04T04:46:31.186Z,92.60
2022-08-04T04:49:04.317Z,92.40
2022-08-04T04:51:38.860Z,92.70
2022-08-04T04:54:15.032Z,93.20
2022-08-04T04:56:51.859Z,93.20
2022-08-04T04:59:23.327Z,93.20
2022-08-04T05:02:26.230Z,93.20
2022-08-04T05:05:12.437Z,93.20
2022-08-04T05:08:43.791Z,93.60
2022-08-04T05:11:05.679Z,93.80
2022-08-04T05:14:35.067Z,94.50
2022-08-04T05:16:33.651Z,94.60
2022-08-04T05:19:15.268Z,94.80
2022-08-04T05:21:48.168Z,94.90
2022-08-04T05:24:20.591Z,95.00
2022-08-04T05:26:52.727Z,94.80
2022-08-04T05:29:31.786Z,94.60
2022-08-04T05:32:06.715Z,94.60
2022-08-04T05:34:40.508Z,95.00
2022-08-04T05:37:10.859Z,95.00
2022-08-04T05:39:47.180Z,95.20
2022-08-04T05:42:16.518Z,95.30
2022-08-04T05:44:50.430Z,95.30
2022-08-04T05:47:22.501Z,95.20
2022-08-04T05:49:55.560Z,95.00
2022-08-04T05:52:31.446Z,95.10
2022-08-04T05:55:01.519Z,95.10
2022-08-04T05:57:30.826Z,95.00
2022-08-04T06:00:07.053Z,94.90
2022-08-04T06:02:50.522Z,94.70
2022-08-04T06:05:19.441Z,94.40
2022-08-04T06:08:12.273Z,94.30
2022-08-04T06:10:39.607Z,94.40
2022-08-04T06:13:49.730Z,94.20
2022-08-04T06:16:02.935Z,94.10
2022-08-04T06:20:03.708Z,94.10
2022-08-04T06:21:29.244Z,94.10
2022-08-04T06:24:04.302Z,94.00
2022-08-04T06:26:35.940Z,93.80
2022-08-04T06:29:05.894Z,93.70
2022-08-04T06:32:31.344Z,93.50
2022-08-04T06:34:36.421Z,93.40
2022-08-04T06:37:05.210Z,93.10
2022-08-04T06:39:35.073Z,93.10
2022-08-04T06:42:22.244Z,92.80
2022-08-04T06:44:52.936Z,92.60
2022-08-04T06:47:22.415Z,92.40
2022-08-04T06:51:28.657Z,92.00
2022-08-04T06:52:42.478Z,91.70
2022-08-04T06:55:10.921Z,91.70
2022-08-04T06:57:40.988Z,91.40
2022-08-04T07:00:11.992Z,91.10
2022-08-04T07:02:44.384Z,90.60
2022-08-04T07:05:14.439Z,90.60
2022-08-04T07:07:57.698Z,90.50
2022-08-04T07:10:28.650Z,90.30
2022-08-04T07:12:57.866Z,90.30
2022-08-04T07:15:27.617Z,90.30
2022-08-04T07:17:59.993Z,90.30
2022-08-04T07:20:35.397Z,90.00
2022-08-04T07:23:05.641Z,90.00
2022-08-04T07:26:11.095Z,89.80
2022-08-04T07:28:24.337Z,89.30
2022-08-04T07:30:53.781Z,89.10
2022-08-04T07:33:23.158Z,88.90
2022-08-04T07:36:04.694Z,89.00
2022-08-04T07:38:48.409Z,89.10
2022-08-04T07:41:39.389Z,89.30
2022-08-04T07:44:08.904Z,88.50
2022-08-04T07:46:37.445Z,88.50
2022-08-04T07:49:06.406Z,88.30
2022-08-04T07:51:37.311Z,87.90
2022-08-04T07:54:07.786Z,87.00
2022-08-04T07:56:37.723Z,86.60
2022-08-04T07:59:06.758Z,85.10
2022-08-04T08:01:36.289Z,85.70
2022-08-04T08:04:07.358Z,84.40
2022-08-04T08:06:43.125Z,84.60
2022-08-04T08:09:14.690Z,83.10
2022-08-04T08:12:37.805Z,83.20
2022-08-04T08:14:35.054Z,83.20
2022-08-04T08:17:04.244Z,83.50
2022-08-04T08:19:32.747Z,84.20
2022-08-04T08:22:05.502Z,84.10
2022-08-04T08:24:37.164Z,83.80
2022-08-04T08:27:06.870Z,82.40
2022-08-04T08:29:37.664Z,82.60
2022-08-04T08:32:09.103Z,82.80
2022-08-04T08:34:39.050Z,81.60
2022-08-04T08:37:15.708Z,81.10
2022-08-04T08:39:50.782Z,79.80
2022-08-04T08:44:00.491Z,79.40
2022-08-04T08:46:33.123Z,79.50
2022-08-04T08:50:02.819Z,80.00
2022-08-04T08:52:57.704Z,79.30
2022-08-04T08:55:43.872Z,77.60
2022-08-04T08:58:47.641Z,77.60
2022-08-04T09:01:30.743Z,78.10
2022-08-04T09:04:36.669Z,77.70
2022-08-04T09:07:19.597Z,77.80
2022-08-04T09:10:03.994Z,78.10
2022-08-04T09:12:42.613Z,78.20
2022-08-04T09:15:29.068Z,78.30
2022-08-04T09:18:03.460Z,77.90
2022-08-04T09:20:39.478Z,77.60
2022-08-04T09:23:20.009Z,77.30
2022-08-04T09:25:58.321Z,76.60
2022-08-04T09:28:52.319Z,77.30
2022-08-04T09:31:20.871Z,77.10
2022-08-04T09:34:00.209Z,78.60
2022-08-04T09:36:35.894Z,77.90
2022-08-04T09:39:13.138Z,78.30
2022-08-04T09:41:52.957Z,77.60
2022-08-04T09:44:49.906Z,76.80
2022-08-04T09:47:39.195Z,77.10
2022-08-04T09:50:24.465Z,76.40
2022-08-04T09:52:59.734Z,76.90
2022-08-04T09:55:53.578Z,76.70
2022-08-04T09:58:40.520Z,76.90
2022-08-04T10:01:12.680Z,77.00
2022-08-04T10:03:44.949Z,76.30
2022-08-04T10:06:35.286Z,76.60
2022-08-04T10:09:18.653Z,77.00
2022-08-04T10:12:06.651Z,75.90
2022-08-04T10:14:49.007Z,74.70
2022-08-04T10:17:29.097Z,74.40
2022-08-04T10:20:05.608Z,73.90
2022-08-04T10:23:02.091Z,73.60
2022-08-04T10:26:02.561Z,73.00
2022-08-04T10:28:29.154Z,72.40
2022-08-04T10:31:04.550Z,72.70
2022-08-04T10:33:38.899Z,71.40
2022-08-04T10:36:11.730Z,71.00
2022-08-04T10:38:50.975Z,71.90
2022-08-04T10:41:26.365Z,71.80
2022-08-04T10:44:07.617Z,72.00
2022-08-04T10:46:44.441Z,72.00
2022-08-04T10:49:24.528Z,72.80
2022-08-04T10:51:58.404Z,72.50
2022-08-04T10:54:32.994Z,72.30
2022-08-04T10:57:08.516Z,72.00
2022-08-04T10:59:42.044Z,71.90
2022-08-04T11:02:27.040Z,71.50
2022-08-04T11:05:02.570Z,71.70
2022-08-04T11:07:33.760Z,70.80
2022-08-04T11:10:02.876Z,70.20
2022-08-04T11:12:32.499Z,70.60
2022-08-04T11:15:06.151Z,69.80
2022-08-04T11:17:39.185Z,70.30
2022-08-04T11:20:34.505Z,69.90
2022-08-04T11:23:09.350Z,70.60
2022-08-04T11:25:48.474Z,69.40
2022-08-04T11:28:32.290Z,70.20
2022-08-04T11:31:06.211Z,70.00
2022-08-04T11:33:45.301Z,69.70
2022-08-04T11:36:22.726Z,68.60
2022-08-04T11:39:01.324Z,68.30
2022-08-04T11:41:41.612Z,68.40
2022-08-04T11:44:18.222Z,68.40
2022-08-04T11:46:55.442Z,67.70
2022-08-04T11:49:32.169Z,67.50
2022-08-04T11:52:21.889Z,67.30
2022-08-04T11:54:52.430Z,67.00
2022-08-04T11:57:23.395Z,67.10
2022-08-04T12:00:09.753Z,67.20
2022-08-04T12:03:00.038Z,66.30
2022-08-04T12:05:36.745Z,65.10
2022-08-04T12:08:22.483Z,64.90
2022-08-04T12:11:02.590Z,64.60
2022-08-04T12:13:40.842Z,64.50
2022-08-04T12:16:16.891Z,64.60
2022-08-04T12:18:52.626Z,64.20
2022-08-04T12:21:30.461Z,64.70
2022-08-04T12:24:03.184Z,64.40
2022-08-04T12:26:36.233Z,63.90
2022-08-04T12:29:11.395Z,64.50
2022-08-04T12:31:46.705Z,64.20
2022-08-04T12:34:18.921Z,63.90
2022-08-04T12:36:57.052Z,62.90
2022-08-04T12:39:28.136Z,63.00
2022-08-04T12:42:04.603Z,62.50
2022-08-04T12:44:37.668Z,61.60
2022-08-04T12:47:27.096Z,60.90
2022-08-04T12:50:03.498Z,60.60
2022-08-04T12:53:01.531Z,61.80
2022-08-04T12:55:28.814Z,60.90
2022-08-04T12:57:58.068Z,59.90
2022-08-04T13:00:31.165Z,59.90
2022-08-04T13:03:06.365Z,60.50
2022-08-04T13:05:40.934Z,59.70
2022-08-04T13:08:12.410Z,59.90
2022-08-04T13:10:42.781Z,59.40
2022-08-04T13:13:17.474Z,59.40
2022-08-04T13:18:50.119Z,59.10
2022-08-04T13:21:22.894Z,58.60
2022-08-04T13:24:22.045Z,58.80
2022-08-04T13:27:03.307Z,58.50
2022-08-04T13:30:00.267Z,58.80
2022-08-04T13:30:24.785Z,59.80
2022-08-04T13:32:27.642Z,58.40
2022-08-04T13:34:58.420Z,57.70
2022-08-04T13:37:38.941Z,58.50
2022-08-04T13:40:12.982Z,57.70
2022-08-04T13:42:42.947Z,58.10
2022-08-04T13:45:12.682Z,57.50
2022-08-04T13:47:42.038Z,57.50
2022-08-04T13:50:16.537Z,57.70
2022-08-04T13:52:46.127Z,56.80
2022-08-04T13:55:25.712Z,56.30
2022-08-04T13:58:04.155Z,55.90
2022-08-04T14:00:44.034Z,56.30
2022-08-04T14:03:19.015Z,56.40
2022-08-04T14:06:15.716Z,56.30
2022-08-04T14:08:53.084Z,56.80
2022-08-04T14:12:10.582Z,56.00
2022-08-04T14:14:23.567Z,55.60
2022-08-04T14:17:00.019Z,55.30
2022-08-04T14:19:35.903Z,55.10
2022-08-04T14:22:04.849Z,54.70
2022-08-04T14:24:32.994Z,55.00
2022-08-04T14:27:02.837Z,55.10
2022-08-04T14:29:38.935Z,54.90
2022-08-04T14:32:14.311Z,54.10
2022-08-04T14:34:45.014Z,52.90
2022-08-04T14:37:19.312Z,50.30
2022-08-04T14:40:17.719Z,48.60
2022-08-04T14:42:54.824Z,47.00
2022-08-04T14:45:33.247Z,45.00
2022-08-04T14:48:02.473Z,43.70
2022-08-04T14:50:39.094Z,42.30
2022-08-04T14:53:09.819Z,41.80
2022-08-04T14:55:38.839Z,41.30
2022-08-04T14:58:35.054Z,40.90
2022-08-04T15:00:59.200Z,40.80
2022-08-04T15:03:29.070Z,40.70
2022-08-04T15:06:05.328Z,39.90
2022-08-04T15:08:36.498Z,39.40
2022-08-04T15:11:04.618Z,39.70
2022-08-04T15:13:34.943Z,39.60
2022-08-04T15:16:08.147Z,39.10
2022-08-04T15:18:39.685Z,39.00
2022-08-04T15:21:09.120Z,39.00
2022-08-04T15:23:38.727Z,39.50
2022-08-04T15:26:12.627Z,39.90
2022-08-04T15:28:57.083Z,39.80
2022-08-04T15:32:07.625Z,39.70
2022-08-04T15:34:14.820Z,39.50
2022-08-04T15:36:57.064Z,39.40
2022-08-04T15:39:37.020Z,39.60
2022-08-04T15:42:21.601Z,40.30
2022-08-04T15:45:19.983Z,40.70
2022-08-04T15:48:28.405Z,41.10
2022-08-04T15:51:15.163Z,41.80
2022-08-04T15:54:23.387Z,42.30
2022-08-04T15:57:02.783Z,43.10
2022-08-04T15:59:57.846Z,43.70
2022-08-04T16:02:51.401Z,43.80
2022-08-04T16:05:36.885Z,44.40
2022-08-04T16:08:13.013Z,44.60
2022-08-04T16:10:43.157Z,45.40
2022-08-04T16:13:14.495Z,46.00
2022-08-04T16:15:45.108Z,47.20
2022-08-04T16:18:26.182Z,47.50
2022-08-04T16:20:57.850Z,48.90
2022-08-04T16:24:02.077Z,48.90
2022-08-04T16:26:55.122Z,49.50
2022-08-04T16:29:37.873Z,50.00
2022-08-04T16:32:26.147Z,50.60
2022-08-04T16:35:00.126Z,51.20
2022-08-04T16:37:33.456Z,51.30
2022-08-04T16:40:35.227Z,51.50
2022-08-04T16:43:07.196Z,51.90
2022-08-04T16:45:50.085Z,52.30
2022-08-04T16:48:19.189Z,52.30
2022-08-04T16:51:06.636Z,52.80
2022-08-04T16:53:52.374Z,53.60
2022-08-04T16:56:33.477Z,53.30
2022-08-04T16:59:09.444Z,53.20
2022-08-04T17:01:38.483Z,53.30
2022-08-04T17:04:07.540Z,52.40
2022-08-04T17:06:40.008Z,52.20
2022-08-04T17:09:12.730Z,52.30
2022-08-04T17:11:41.742Z,52.70
2022-08-04T17:14:10.605Z,53.00
2022-08-04T17:16:40.340Z,53.10
2022-08-04T17:19:24.198Z,53.70
2022-08-04T17:22:04.144Z,53.20
2022-08-04T17:24:34.046Z,53.90
2022-08-04T17:27:04.243Z,54.40
2022-08-04T17:29:42.730Z,54.50
2022-08-04T17:32:15.836Z,54.40
2022-08-04T17:34:48.833Z,54.50
2022-08-04T17:37:40.600Z,54.90
2022-08-04T17:40:10.687Z,55.10
2022-08-04T17:42:41.555Z,55.30
2022-08-04T17:47:59.857Z,55.60
2022-08-04T17:50:29.605Z,55.90
2022-08-04T17:53:12.155Z,56.10
2022-08-04T17:55:51.759Z,57.00
2022-08-04T17:58:26.933Z,56.20
2022-08-04T18:01:23.068Z,56.50
2022-08-04T18:03:58.055Z,56.70
2022-08-04T18:06:27.684Z,57.10
2022-08-04T18:09:22.444Z,56.80
2022-08-04T18:11:54.598Z,57.40
2022-08-04T18:14:25.885Z,56.60
2022-08-04T18:16:57.594Z,57.00
2022-08-04T18:19:25.737Z,57.70
2022-08-04T18:22:01.195Z,58.20
2022-08-04T18:24:35.991Z,58.30
2022-08-04T18:27:23.798Z,59.00
2022-08-04T18:30:33.591Z,59.10
2022-08-04T18:32:56.426Z,58.80
2022-08-04T18:41:10.913Z,59.10
2022-08-04T18:43:41.320Z,59.10
2022-08-04T18:46:14.307Z,59.60
2022-08-04T18:48:42.605Z,59.50
2022-08-04T18:51:24.258Z,60.00
2022-08-04T18:53:58.676Z,60.10
2022-08-04T18:56:32.834Z,60.20
2022-08-04T18:59:03.067Z,60.40
2022-08-04T19:02:13.171Z,60.00
2022-08-04T19:04:32.113Z,60.40
2022-08-04T19:08:01.458Z,60.50
2022-08-04T19:09:51.907Z,61.00
2022-08-04T19:12:26.830Z,60.40
2022-08-04T19:14:58.862Z,60.80
2022-08-04T19:20:25.878Z,61.10
2022-08-04T19:25:59.413Z,61.00
2022-08-04T19:28:35.479Z,61.10
2022-08-04T19:31:05.730Z,61.20
2022-08-04T19:33:58.793Z,61.50
2022-08-04T19:36:27.792Z,62.00
2022-08-04T19:38:58.244Z,62.30
2022-08-04T19:41:27.090Z,62.50
2022-08-04T19:43:57.016Z,62.70
2022-08-04T19:46:27.866Z,62.80
2022-08-04T19:48:59.334Z,63.00
2022-08-04T19:51:30.051Z,63.60
2022-08-04T19:54:02.953Z,63.70
2022-08-04T19:56:40.199Z,63.80
2022-08-04T19:59:15.565Z,64.40
2022-08-04T20:01:45.768Z,64.50
2022-08-04T20:04:24.580Z,64.70
2022-08-04T20:06:58.193Z,65.10
2022-08-04T20:09:27.367Z,65.20
2022-08-04T20:11:56.547Z,65.10
2022-08-04T20:14:31.510Z,65.00
2022-08-04T20:17:02.072Z,65.90
2022-08-04T20:19:32.230Z,66.40
2022-08-04T20:22:05.173Z,66.10
2022-08-04T20:25:01.031Z,67.00
2022-08-04T20:30:34.191Z,66.70
2022-08-04T20:33:04.374Z,67.00
2022-08-04T20:38:33.209Z,67.50
2022-08-04T20:41:02.305Z,67.40
2022-08-04T20:43:32.651Z,68.40
2022-08-04T20:46:17.925Z,70.50
2022-08-04T20:48:46.882Z,70.30
2022-08-04T20:51:19.970Z,70.60
2022-08-04T20:53:57.270Z,71.30
2022-08-04T20:56:31.427Z,71.10
2022-08-04T20:59:00.237Z,71.20
2022-08-04T21:01:30.794Z,70.90
2022-08-04T21:04:27.277Z,70.40
2022-08-04T21:06:57.953Z,70.80
2022-08-04T21:09:38.210Z,70.90
2022-08-04T21:12:26.663Z,70.90
2022-08-04T21:14:55.315Z,71.20
2022-08-04T21:17:58.959Z,71.30
2022-08-04T21:20:27.280Z,74.20
2022-08-04T21:23:01.725Z,75.10
2022-08-04T21:25:32.395Z,75.40
2022-08-04T21:28:10.757Z,72.70
2022-08-04T21:30:54.276Z,73.20
2022-08-04T21:33:50.021Z,73.90
2022-08-04T21:36:16.165Z,74.70
2022-08-04T21:38:52.172Z,75.00
2022-08-04T21:41:25.014Z,75.10
2022-08-04T21:43:55.452Z,74.30
2022-08-04T21:46:24.351Z,76.40
2022-08-04T21:48:53.778Z,76.60
2022-08-04T21:51:58.457Z,76.40
2022-08-04T21:54:17.042Z,76.60
2022-08-04T21:56:51.385Z,76.50
2022-08-04T21:59:23.617Z,76.30
2022-08-04T22:02:00.265Z,75.70
2022-08-04T22:04:49.622Z,76.50
2022-08-04T22:07:17.871Z,77.30
2022-08-04T22:09:59.978Z,77.80
2022-08-04T22:12:31.127Z,76.10
2022-08-04T22:15:02.215Z,76.70
2022-08-04T22:17:50.300Z,78.30
2022-08-04T22:20:28.066Z,78.00
2022-08-04T22:23:03.348Z,77.90
2022-08-04T22:25:37.771Z,78.30
2022-08-04T22:28:07.880Z,78.50
2022-08-04T22:30:37.807Z,78.90
2022-08-04T22:33:08.929Z,80.10
2022-08-04T22:35:49.019Z,80.80
2022-08-04T22:38:35.831Z,81.50
2022-08-04T22:41:10.834Z,81.40
2022-08-04T22:43:40.827Z,80.80
2022-08-04T22:46:12.033Z,82.30
2022-08-04T22:48:43.402Z,83.40
2022-08-04T22:51:14.330Z,83.50
2022-08-04T22:53:48.809Z,82.60
2022-08-04T22:56:37.486Z,83.90
2022-08-04T22:59:06.081Z,83.90
2022-08-04T23:01:59.412Z,83.70
2022-08-04T23:04:25.016Z,83.00
2022-08-04T23:06:55.222Z,83.70
2022-08-04T23:09:48.890Z,85.20
2022-08-04T23:12:27.671Z,85.40
2022-08-04T23:14:56.906Z,85.80
2022-08-04T23:17:25.510Z,86.10
2022-08-04T23:19:58.020Z,86.00
2022-08-04T23:22:41.807Z,85.50
2022-08-04T23:25:15.365Z,86.30
2022-08-04T23:27:50.824Z,86.70
2022-08-04T23:30:21.711Z,86.50
2022-08-04T23:32:52.771Z,86.60
2022-08-04T23:35:22.133Z,86.30
2022-08-04T23:37:57.630Z,85.80
2022-08-04T23:40:33.019Z,85.60
2022-08-04T23:43:02.314Z,86.80
2022-08-04T23:46:04.593Z,87.20
2022-08-04T23:48:33.058Z,87.70
2022-08-04T23:51:04.673Z,87.80
2022-08-04T23:54:02.319Z,88.20
2022-08-04T23:56:32.986Z,88.30
2022-08-04T23:59:04.106Z,88.60
